Time;durP1;ratioP1;P1;durP2;ratioP2;P2;SDS_P1;SDS_P2;PMS_P1;PMS_P2;Temp;Humidity;BMP_temperature;BMP_pressure;BME280_temperature;BME280_humidity;BME280_pressure;Samples;Min_cycle;Max_cycle;Signal;HPM_P1;HPM_P2
2023/05/13 00:00:12;;;;;;;80.80;52.42;;;17.80;83.40;;;;;;4929552;28;85389;-75
2023/05/13 00:02:38;;;;;;;82.38;53.10;;;17.80;83.30;;;;;;4951417;28;90514;-81
2023/05/13 00:05:04;;;;;;;80.68;52.72;;;17.80;83.20;;;;;;4937970;28;85137;-78
2023/05/13 00:07:30;;;;;;;81.57;52.92;;;17.80;83.20;;;;;;4940258;28;85779;-75
2023/05/13 00:09:55;;;;;;;80.80;52.63;;;17.80;83.30;;;;;;4938238;28;85501;-78
2023/05/13 00:12:21;;;;;;;81.30;52.88;;;17.80;83.30;;;;;;4941323;28;85505;-80
2023/05/13 00:14:47;;;;;;;81.45;53.03;;;17.80;83.10;;;;;;4942018;28;85403;-78
2023/05/13 00:17:13;;;;;;;81.22;53.10;;;17.80;83.10;;;;;;4935791;28;85065;-79
2023/05/13 00:19:39;;;;;;;81.40;52.90;;;17.80;83.20;;;;;;4935399;28;85051;-81
2023/05/13 00:22:05;;;;;;;83.00;53.22;;;17.80;83.00;;;;;;4924326;28;90711;-76
2023/05/13 00:24:30;;;;;;;81.45;53.28;;;17.80;82.90;;;;;;4952740;28;85523;-80
2023/05/13 00:26:56;;;;;;;82.03;53.22;;;17.80;82.90;;;;;;4946291;28;85778;-77
2023/05/13 00:29:22;;;;;;;80.78;52.92;;;17.70;82.80;;;;;;4943502;28;85155;-81
2023/05/13 00:31:47;;;;;;;81.15;53.13;;;17.70;82.90;;;;;;4942656;28;86330;-75
2023/05/13 00:34:13;;;;;;;81.07;53.35;;;17.70;82.60;;;;;;4945173;28;85298;-80
2023/05/13 00:36:38;;;;;;;81.20;52.80;;;17.70;82.50;;;;;;4946227;28;86605;-79
2023/05/13 00:39:04;;;;;;;81.47;53.15;;;17.70;82.70;;;;;;4938917;28;85110;-81
2023/05/13 00:41:30;;;;;;;81.65;53.20;;;17.70;82.70;;;;;;4940017;28;86285;-77
2023/05/13 00:43:56;;;;;;;81.78;53.38;;;17.70;82.50;;;;;;4943073;28;85599;-81
2023/05/13 00:46:22;;;;;;;82.07;53.92;;;17.70;82.40;;;;;;4937890;28;85404;-72
2023/05/13 00:48:49;;;;;;;82.95;54.15;;;17.70;82.10;;;;;;4944426;28;85869;-78
2023/05/13 00:51:15;;;;;;;81.18;53.33;;;17.70;82.20;;;;;;4936424;28;89511;-78
2023/05/13 00:53:41;;;;;;;82.53;53.83;;;17.70;82.20;;;;;;4943395;28;85371;-77
2023/05/13 00:56:07;;;;;;;82.47;54.25;;;17.70;82.20;;;;;;4945891;28;84953;-80
2023/05/13 00:58:33;;;;;;;82.47;54.03;;;17.70;82.20;;;;;;4940950;28;85895;-80
2023/05/13 01:01:19;;;;;;;83.55;54.95;;;17.70;82.00;;;;;;4935447;28;86779;-74
2023/05/13 01:03:56;;;;;;;83.78;55.05;;;17.70;81.70;;;;;;4941696;28;85734;-79
2023/05/13 01:07:00;;;;;;;83.38;54.42;;;17.70;81.60;;;;;;4941408;28;85818;-79
2023/05/13 01:09:39;;;;;;;82.88;54.92;;;17.70;81.90;;;;;;4907156;28;86069;-79
2023/05/13 01:12:09;;;;;;;85.32;55.13;;;17.70;81.70;;;;;;4942651;28;85100;-81
2023/05/13 01:14:43;;;;;;;82.82;54.42;;;17.60;81.70;;;;;;4945135;28;86207;-78
2023/05/13 01:17:27;;;;;;;84.78;54.75;;;17.60;81.90;;;;;;4938094;28;85530;-78
2023/05/13 01:19:56;;;;;;;84.03;55.13;;;17.60;81.80;;;;;;4937959;28;87093;-76
2023/05/13 01:22:22;;;;;;;83.50;54.58;;;17.60;81.70;;;;;;4937447;28;86519;-78
2023/05/13 01:24:49;;;;;;;82.70;54.45;;;17.60;81.60;;;;;;4940499;28;85206;-80
2023/05/13 01:27:15;;;;;;;83.68;54.47;;;17.60;81.80;;;;;;4941540;28;85092;-75
2023/05/13 01:29:41;;;;;;;82.28;53.83;;;17.60;81.80;;;;;;4946201;28;86352;-75
2023/05/13 01:32:09;;;;;;;75.95;53.78;;;17.60;81.90;;;;;;4933328;28;85067;-73
2023/05/13 01:34:35;;;;;;;73.57;53.30;;;17.60;81.90;;;;;;4937980;28;85092;-81
2023/05/13 01:37:02;;;;;;;72.22;53.10;;;17.60;81.90;;;;;;4940956;28;85628;-74
2023/05/13 01:39:29;;;;;;;72.00;53.22;;;17.60;81.90;;;;;;4935670;28;85837;-77
2023/05/13 01:41:54;;;;;;;71.80;53.17;;;17.60;81.90;;;;;;4939395;28;85310;-78
2023/05/13 01:44:20;;;;;;;74.40;53.80;;;17.60;81.90;;;;;;4940930;28;85128;-77
2023/05/13 01:46:49;;;;;;;71.18;53.33;;;17.60;81.80;;;;;;4933699;28;85673;-75
2023/05/13 01:49:15;;;;;;;71.55;53.15;;;17.60;81.70;;;;;;4938715;28;85094;-80
2023/05/13 01:51:40;;;;;;;72.47;53.17;;;17.50;81.80;;;;;;4940167;28;84911;-81
2023/05/13 01:54:06;;;;;;;71.70;53.10;;;17.50;81.80;;;;;;4944324;28;85422;-77
2023/05/13 01:56:32;;;;;;;71.13;52.85;;;17.50;81.90;;;;;;4941000;28;85345;-73
2023/05/13 01:58:57;;;;;;;70.82;53.08;;;17.50;81.80;;;;;;4938679;28;85931;-79
2023/05/13 02:01:23;;;;;;;72.70;53.05;;;17.60;81.90;;;;;;4953923;28;87210;-79
2023/05/13 02:03:49;;;;;;;71.18;53.17;;;17.60;81.90;;;;;;4935000;28;86940;-80
2023/05/13 02:06:14;;;;;;;71.10;53.88;;;17.50;81.80;;;;;;4945274;28;85038;-75
2023/05/13 02:08:40;;;;;;;72.05;52.92;;;17.50;81.80;;;;;;4942436;28;86929;-83
2023/05/13 02:11:06;;;;;;;71.63;53.67;;;17.50;81.90;;;;;;4941288;28;86028;-81
2023/05/13 02:13:31;;;;;;;70.82;53.17;;;17.50;81.70;;;;;;4938806;28;84992;-76
2023/05/13 02:15:57;;;;;;;70.40;53.50;;;17.50;81.70;;;;;;4937382;28;87309;-72
2023/05/13 02:18:23;;;;;;;71.82;53.97;;;17.50;81.80;;;;;;4932312;28;87654;-77
2023/05/13 02:20:48;;;;;;;71.43;53.72;;;17.50;81.80;;;;;;4935282;28;85430;-71
2023/05/13 02:23:14;;;;;;;71.97;54.00;;;17.50;81.80;;;;;;4944956;28;84985;-80
2023/05/13 02:25:43;;;;;;;72.13;53.53;;;17.50;81.80;;;;;;4938108;28;86692;-83
2023/05/13 02:28:09;;;;;;;71.85;53.70;;;17.50;81.80;;;;;;4935632;28;85561;-77
2023/05/13 02:30:35;;;;;;;70.82;53.65;;;17.50;81.70;;;;;;4938315;28;86487;-79
2023/05/13 02:33:01;;;;;;;73.25;53.88;;;17.40;81.60;;;;;;4939545;28;85884;-72
2023/05/13 02:35:29;;;;;;;74.88;54.42;;;17.40;81.70;;;;;;4929773;28;85429;-80
2023/05/13 02:37:56;;;;;;;71.18;53.78;;;17.40;81.60;;;;;;4931293;28;87290;-74
2023/05/13 02:40:22;;;;;;;75.88;54.83;;;17.40;81.60;;;;;;4920242;28;86243;-73
2023/05/13 02:42:48;;;;;;;74.85;55.15;;;17.40;81.50;;;;;;4906469;28;87083;-74
2023/05/13 02:45:14;;;;;;;75.45;54.22;;;17.40;81.50;;;;;;4933198;28;85713;-77
2023/05/13 02:47:39;;;;;;;73.90;55.20;;;17.40;81.70;;;;;;4930469;28;85510;-81
2023/05/13 02:50:08;;;;;;;73.13;54.20;;;17.40;81.60;;;;;;4933175;28;86241;-77
2023/05/13 02:52:35;;;;;;;72.65;54.25;;;17.40;81.70;;;;;;4936699;28;89213;-72
2023/05/13 02:55:01;;;;;;;74.47;55.22;;;17.40;81.70;;;;;;4932529;28;85303;-70
2023/05/13 02:57:27;;;;;;;72.78;54.28;;;17.40;81.60;;;;;;4950029;28;84909;-78
2023/05/13 02:59:52;;;;;;;72.65;54.45;;;17.40;81.70;;;;;;4931370;28;89658;-73
2023/05/13 03:02:18;;;;;;;75.35;54.22;;;17.40;81.60;;;;;;4928484;28;86165;-78
2023/05/13 03:04:44;;;;;;;72.22;53.72;;;17.40;81.80;;;;;;4928072;28;85352;-81
2023/05/13 03:07:10;;;;;;;70.95;53.80;;;17.30;81.70;;;;;;4934325;28;87338;-78
2023/05/13 03:09:38;;;;;;;74.15;54.08;;;17.30;81.70;;;;;;4938418;28;85243;-71
2023/05/13 03:12:05;;;;;;;72.97;53.67;;;17.30;81.90;;;;;;4930550;28;86825;-78
2023/05/13 03:14:30;;;;;;;72.80;53.88;;;17.30;81.70;;;;;;4932467;28;85969;-78
2023/05/13 03:16:56;;;;;;;70.65;53.60;;;17.30;81.70;;;;;;4934082;28;88514;-77
2023/05/13 03:19:23;;;;;;;72.75;53.47;;;17.30;81.80;;;;;;4927472;28;86118;-72
2023/05/13 03:21:48;;;;;;;74.25;54.38;;;17.30;81.70;;;;;;4933795;28;85107;-79
2023/05/13 03:24:14;;;;;;;71.05;53.90;;;17.30;81.70;;;;;;4930733;28;87162;-78
2023/05/13 03:26:40;;;;;;;72.18;54.10;;;17.30;81.80;;;;;;4933254;28;85538;-81
2023/05/13 03:29:05;;;;;;;71.82;54.30;;;17.30;81.70;;;;;;4931763;28;85293;-78
2023/05/13 03:31:31;;;;;;;73.40;54.08;;;17.30;81.70;;;;;;4928782;28;86120;-74
2023/05/13 03:33:57;;;;;;;71.78;53.88;;;17.30;81.70;;;;;;4925918;28;89507;-77
2023/05/13 03:36:23;;;;;;;72.45;54.08;;;17.30;81.80;;;;;;4928793;28;85409;-77
2023/05/13 03:38:48;;;;;;;72.25;54.25;;;17.30;81.80;;;;;;4932383;28;85078;-80
2023/05/13 03:41:16;;;;;;;74.68;54.53;;;17.30;81.80;;;;;;4926784;28;87889;-72
2023/05/13 03:43:42;;;;;;;71.72;54.28;;;17.20;81.60;;;;;;4929024;28;86661;-72
2023/05/13 03:46:08;;;;;;;73.32;54.88;;;17.20;81.60;;;;;;4927737;28;89438;-76
2023/05/13 03:48:34;;;;;;;71.82;53.95;;;17.20;81.60;;;;;;4938102;28;86599;-73
2023/05/13 03:51:00;;;;;;;71.82;53.75;;;17.20;81.80;;;;;;4926583;28;85312;-75
2023/05/13 03:53:26;;;;;;;74.93;54.25;;;17.20;81.80;;;;;;4935204;28;85722;-74
2023/05/13 03:55:51;;;;;;;72.78;54.67;;;17.20;81.80;;;;;;4933000;28;86958;-80
2023/05/13 03:58:17;;;;;;;72.20;53.85;;;17.20;81.80;;;;;;4949446;28;87455;-73
2023/05/13 04:00:46;;;;;;;70.85;54.05;;;17.20;81.80;;;;;;4934609;28;86532;-80
2023/05/13 04:03:14;;;;;;;72.40;54.85;;;17.20;81.80;;;;;;4933216;28;86582;-76
2023/05/13 04:05:40;;;;;;;74.80;54.63;;;17.20;81.80;;;;;;4937663;28;85624;-75
2023/05/13 04:08:06;;;;;;;72.22;54.47;;;17.20;81.80;;;;;;4931518;28;88007;-78
2023/05/13 04:10:32;;;;;;;73.65;54.95;;;17.10;81.70;;;;;;4934003;28;85460;-70
2023/05/13 04:12:58;;;;;;;73.57;55.05;;;17.10;81.70;;;;;;4937106;28;85002;-75
2023/05/13 04:15:23;;;;;;;74.13;54.20;;;17.10;81.70;;;;;;4942876;28;87189;-80
2023/05/13 04:17:49;;;;;;;74.25;54.83;;;17.10;81.70;;;;;;4942203;28;85369;-81
2023/05/13 04:20:15;;;;;;;74.05;54.20;;;17.10;81.50;;;;;;4942490;28;85823;-80
2023/05/13 04:22:41;;;;;;;72.80;55.22;;;17.10;81.80;;;;;;4941324;28;84856;-78
2023/05/13 04:25:07;;;;;;;72.32;54.33;;;17.10;81.70;;;;;;4941137;28;85875;-76
2023/05/13 04:27:32;;;;;;;74.65;54.80;;;17.10;81.70;;;;;;4944494;28;85540;-73
2023/05/13 04:29:58;;;;;;;73.15;54.47;;;17.10;81.80;;;;;;4941162;28;85261;-78
2023/05/13 04:32:24;;;;;;;72.75;54.58;;;17.10;81.70;;;;;;4938187;28;95209;-76
2023/05/13 04:34:51;;;;;;;74.80;54.55;;;17.10;81.70;;;;;;4937880;28;85815;-80
2023/05/13 04:37:17;;;;;;;72.30;54.30;;;17.10;81.70;;;;;;4940239;28;85847;-77
2023/05/13 04:39:46;;;;;;;75.68;55.50;;;17.10;81.80;;;;;;4944456;28;85884;-74
2023/05/13 04:42:12;;;;;;;75.78;55.50;;;17.10;81.50;;;;;;4942449;28;86388;-79
2023/05/13 04:44:38;;;;;;;72.57;54.83;;;17.10;81.80;;;;;;4939751;28;85774;-75
2023/05/13 04:47:04;;;;;;;74.38;55.28;;;17.00;81.70;;;;;;4941806;28;86492;-79
2023/05/13 04:49:29;;;;;;;73.93;55.22;;;17.10;81.70;;;;;;4941856;28;86997;-74
2023/05/13 04:51:56;;;;;;;73.72;55.20;;;17.10;81.70;;;;;;4944509;28;85957;-78
2023/05/13 04:54:22;;;;;;;74.30;54.78;;;17.10;81.70;;;;;;4944425;28;85764;-80
2023/05/13 04:56:47;;;;;;;73.85;55.05;;;17.10;81.90;;;;;;4946528;28;85191;-79
2023/05/13 04:59:13;;;;;;;73.20;54.55;;;17.00;81.70;;;;;;4942692;28;85125;-80
2023/05/13 05:01:39;;;;;;;74.65;55.28;;;17.00;81.80;;;;;;4940644;28;85631;-75
2023/05/13 05:04:04;;;;;;;75.72;55.13;;;17.10;82.00;;;;;;4937231;28;86843;-78
2023/05/13 05:06:31;;;;;;;77.65;54.90;;;17.00;81.80;;;;;;4943966;28;85612;-80
2023/05/13 05:08:57;;;;;;;75.57;54.65;;;17.00;81.50;;;;;;4945656;28;85340;-79
2023/05/13 05:11:23;;;;;;;73.38;55.47;;;17.00;81.70;;;;;;4940949;28;85591;-79
2023/05/13 05:13:49;;;;;;;73.18;54.85;;;17.00;81.70;;;;;;4941534;28;89909;-80
2023/05/13 05:16:15;;;;;;;75.03;55.75;;;17.10;82.00;;;;;;4934418;28;86243;-73
2023/05/13 05:18:42;;;;;;;73.45;55.13;;;17.00;81.70;;;;;;4940307;28;85115;-75
2023/05/13 05:21:08;;;;;;;75.07;55.70;;;17.00;81.70;;;;;;4943508;28;85987;-77
2023/05/13 05:23:34;;;;;;;75.72;55.75;;;17.00;81.80;;;;;;4943165;28;85558;-75
2023/05/13 05:26:00;;;;;;;75.28;55.83;;;17.10;81.80;;;;;;4941009;28;85694;-79
2023/05/13 05:28:26;;;;;;;75.97;57.13;;;17.10;81.70;;;;;;4942987;28;85097;-76
2023/05/13 05:30:52;;;;;;;73.72;55.45;;;17.10;81.70;;;;;;4937486;28;85771;-80
2023/05/13 05:33:18;;;;;;;74.95;55.80;;;17.00;81.40;;;;;;4933482;28;89831;-70
2023/05/13 05:35:44;;;;;;;74.38;56.15;;;17.00;81.50;;;;;;4938508;28;85249;-79
2023/05/13 05:38:11;;;;;;;74.32;55.53;;;17.10;81.50;;;;;;4937778;28;85149;-75
2023/05/13 05:40:39;;;;;;;76.53;56.33;;;17.10;81.70;;;;;;4938327;28;86405;-80
2023/05/13 05:43:06;;;;;;;77.13;56.42;;;17.10;81.30;;;;;;4940965;28;86693;-71
2023/05/13 05:45:33;;;;;;;77.97;57.35;;;17.00;81.10;;;;;;4951456;28;85601;-70
2023/05/13 05:47:59;;;;;;;74.80;55.90;;;17.00;81.10;;;;;;4950571;28;84649;-77
2023/05/13 05:50:26;;;;;;;76.05;56.22;;;17.00;81.30;;;;;;4941003;28;87996;-77
2023/05/13 05:52:52;;;;;;;74.57;55.70;;;17.00;81.40;;;;;;4937260;28;86416;-77
2023/05/13 05:55:17;;;;;;;75.22;56.08;;;17.00;81.50;;;;;;4938369;28;85426;-75
2023/05/13 05:57:43;;;;;;;74.80;55.50;;;17.00;81.50;;;;;;4943200;28;85629;-79
2023/05/13 06:00:09;;;;;;;74.97;55.83;;;17.10;81.60;;;;;;4944171;28;85324;-80
2023/05/13 06:02:35;;;;;;;76.65;55.22;;;17.10;81.70;;;;;;4941460;28;85227;-76
2023/05/13 06:05:00;;;;;;;73.78;55.28;;;17.10;81.80;;;;;;4942490;28;84993;-78
2023/05/13 06:07:26;;;;;;;75.57;54.80;;;17.10;81.70;;;;;;4937744;28;84932;-76
2023/05/13 06:09:51;;;;;;;78.05;55.85;;;17.10;81.80;;;;;;4938555;28;86967;-75
2023/05/13 06:12:17;;;;;;;74.75;55.55;;;17.10;81.80;;;;;;4944241;28;87817;-77
2023/05/13 06:14:43;;;;;;;73.40;55.38;;;17.10;81.60;;;;;;4938251;28;85515;-74
2023/05/13 06:17:08;;;;;;;74.55;54.58;;;17.10;81.60;;;;;;4932897;28;86202;-80
2023/05/13 06:19:34;;;;;;;76.10;55.55;;;17.10;81.60;;;;;;4940574;28;85934;-74
2023/05/13 06:21:59;;;;;;;73.18;55.25;;;17.10;81.40;;;;;;4944943;28;85034;-79
2023/05/13 06:24:25;;;;;;;74.45;55.38;;;17.10;81.40;;;;;;4944549;28;85166;-71
2023/05/13 06:26:51;;;;;;;76.03;55.75;;;17.10;81.50;;;;;;4941518;28;84468;-79
2023/05/13 06:29:16;;;;;;;74.13;54.92;;;17.10;81.60;;;;;;4941100;28;85050;-79
2023/05/13 06:31:42;;;;;;;72.50;54.85;;;17.10;81.70;;;;;;4932200;28;85877;-77
2023/05/13 06:34:15;;;;;;;77.18;55.33;;;17.10;81.70;;;;;;4945197;28;85285;-79
2023/05/13 06:36:41;;;;;;;75.38;55.90;;;17.10;81.50;;;;;;4938306;28;90358;-73
2023/05/13 06:39:07;;;;;;;73.30;54.85;;;17.10;81.40;;;;;;4945011;28;85350;-72
2023/05/13 06:41:32;;;;;;;75.00;55.22;;;17.10;81.60;;;;;;4938350;28;85644;-76
2023/05/13 06:43:58;;;;;;;73.55;55.28;;;17.10;81.50;;;;;;4942454;28;86137;-75
2023/05/13 06:46:23;;;;;;;72.43;54.65;;;17.10;81.40;;;;;;4937996;28;87060;-78
2023/05/13 06:48:51;;;;;;;75.35;54.78;;;17.10;81.40;;;;;;4940611;28;86853;-73
2023/05/13 06:51:17;;;;;;;72.70;54.67;;;17.10;81.40;;;;;;4944930;28;86406;-80
2023/05/13 06:53:42;;;;;;;75.97;55.08;;;17.10;81.60;;;;;;4932035;28;85356;-72
2023/05/13 06:56:08;;;;;;;72.43;54.72;;;17.10;81.40;;;;;;4936440;28;86234;-76
2023/05/13 06:58:33;;;;;;;73.50;54.22;;;17.10;81.50;;;;;;4942979;28;85280;-74
2023/05/13 07:00:59;;;;;;;72.40;54.15;;;17.10;81.30;;;;;;4939529;28;86156;-80
2023/05/13 07:03:25;;;;;;;75.40;55.70;;;17.10;81.10;;;;;;4937839;28;85307;-78
2023/05/13 07:05:50;;;;;;;74.18;54.58;;;17.10;81.10;;;;;;4942111;28;85351;-80
2023/05/13 07:08:17;;;;;;;72.80;54.70;;;17.10;81.30;;;;;;4936444;28;84960;-81
2023/05/13 07:10:43;;;;;;;73.38;54.15;;;17.10;81.10;;;;;;4931783;28;85484;-80
2023/05/13 07:13:10;;;;;;;74.50;54.55;;;17.20;81.40;;;;;;4938317;28;85038;-75
2023/05/13 07:15:35;;;;;;;73.68;54.40;;;17.10;81.10;;;;;;4928675;28;89595;-73
2023/05/13 07:18:01;;;;;;;75.45;54.05;;;17.20;81.20;;;;;;4924775;28;89144;-72
2023/05/13 07:20:27;;;;;;;78.10;54.75;;;17.20;82.20;;;;;;4929437;28;86208;-79
2023/05/13 07:22:52;;;;;;;77.18;54.28;;;17.20;81.90;;;;;;4932350;28;88167;-75
2023/05/13 07:25:18;;;;;;;72.90;54.08;;;17.20;81.90;;;;;;4937702;28;85070;-77
2023/05/13 07:27:44;;;;;;;74.25;54.30;;;17.20;81.80;;;;;;4937205;28;85610;-76
2023/05/13 07:30:11;;;;;;;75.25;54.17;;;17.20;82.10;;;;;;4938201;28;87264;-76
2023/05/13 07:32:37;;;;;;;75.30;54.40;;;17.20;81.80;;;;;;4940810;28;85430;-83
2023/05/13 07:35:03;;;;;;;72.50;54.45;;;17.20;81.70;;;;;;4943599;28;89609;-77
2023/05/13 07:37:29;;;;;;;75.72;54.17;;;17.20;82.00;;;;;;4942178;28;89788;-78
2023/05/13 07:39:55;;;;;;;74.88;53.95;;;17.20;82.00;;;;;;4937894;28;88658;-77
2023/05/13 07:42:20;;;;;;;75.53;53.95;;;17.20;82.10;;;;;;4939070;28;90106;-80
2023/05/13 07:44:46;;;;;;;74.85;54.05;;;17.20;82.20;;;;;;4935625;28;91222;-73
2023/05/13 07:47:12;;;;;;;71.95;53.97;;;17.20;82.40;;;;;;4941553;28;90051;-75
2023/05/13 07:49:38;;;;;;;79.22;54.30;;;17.20;82.70;;;;;;4946220;28;90497;-75
2023/05/13 07:52:04;;;;;;;73.70;54.08;;;17.30;82.90;;;;;;4959624;28;89815;-71
2023/05/13 07:54:30;;;;;;;76.05;54.60;;;17.30;82.90;;;;;;4952515;28;88984;-73
2023/05/13 07:56:55;;;;;;;76.55;54.72;;;17.30;82.80;;;;;;4942207;28;89706;-78
2023/05/13 07:59:21;;;;;;;76.13;54.65;;;17.30;82.70;;;;;;4942833;28;90229;-73
2023/05/13 08:01:46;;;;;;;75.95;54.83;;;17.30;82.80;;;;;;4939441;28;90115;-74
2023/05/13 08:04:12;;;;;;;75.25;54.13;;;17.30;82.90;;;;;;4932547;28;90404;-71
2023/05/13 08:06:38;;;;;;;76.13;54.10;;;17.30;82.90;;;;;;4932469;28;91098;-69
2023/05/13 08:09:04;;;;;;;74.82;53.70;;;17.30;83.00;;;;;;4933818;28;91050;-70
2023/05/13 08:11:29;;;;;;;74.28;54.03;;;17.30;83.10;;;;;;4930709;28;93391;-74
2023/05/13 08:13:55;;;;;;;74.80;54.80;;;17.30;83.20;;;;;;4929294;28;89314;-73
2023/05/13 08:16:21;;;;;;;75.15;54.30;;;17.30;83.20;;;;;;4931739;28;90016;-73
2023/05/13 08:18:46;;;;;;;74.10;54.38;;;17.30;83.10;;;;;;4934851;28;94585;-74
2023/05/13 08:21:12;;;;;;;73.68;53.90;;;17.30;83.10;;;;;;4941617;28;89741;-71
2023/05/13 08:23:38;;;;;;;74.50;54.05;;;17.30;83.10;;;;;;4929631;28;94925;-76
2023/05/13 08:26:03;;;;;;;75.85;54.80;;;17.30;83.00;;;;;;4937244;28;91262;-74
2023/05/13 08:28:29;;;;;;;75.07;54.28;;;17.30;82.90;;;;;;4932830;28;89646;-76
2023/05/13 08:31:01;;;;;;;74.82;54.70;;;17.30;82.90;;;;;;4935354;28;93371;-76
2023/05/13 08:33:30;;;;;;;77.20;54.50;;;17.30;82.90;;;;;;4926207;28;89049;-70
2023/05/13 08:35:56;;;;;;;76.25;54.20;;;17.30;83.00;;;;;;4929820;28;91060;-72
2023/05/13 08:38:22;;;;;;;77.43;55.30;;;17.30;83.10;;;;;;4939523;28;90763;-73
2023/05/13 08:40:47;;;;;;;81.10;55.30;;;17.40;83.20;;;;;;4939769;28;90253;-73
2023/05/13 08:43:18;;;;;;;78.65;54.95;;;17.30;83.40;;;;;;4941427;28;89048;-77
2023/05/13 08:45:46;;;;;;;77.53;54.75;;;17.40;83.30;;;;;;4941086;28;89226;-72
2023/05/13 08:48:15;;;;;;;76.78;55.13;;;17.40;83.20;;;;;;4940082;28;90097;-74
2023/05/13 08:50:41;;;;;;;84.22;55.60;;;17.40;83.70;;;;;;4928971;28;93782;-79
2023/05/13 08:53:08;;;;;;;80.68;55.85;;;17.40;83.50;;;;;;4918235;28;89784;-77
2023/05/13 08:55:33;;;;;;;84.05;56.65;;;17.40;83.70;;;;;;4931905;28;90470;-74
2023/05/13 08:57:59;;;;;;;84.18;56.17;;;17.40;84.50;;;;;;4940016;28;89183;-77
2023/05/13 09:00:25;;;;;;;83.50;56.17;;;17.40;84.90;;;;;;4940677;28;90516;-77
2023/05/13 09:02:51;;;;;;;80.05;55.75;;;17.40;84.90;;;;;;4941920;28;89320;-78
2023/05/13 09:05:16;;;;;;;84.75;55.78;;;17.40;84.90;;;;;;4936657;28;90422;-77
2023/05/13 09:07:42;;;;;;;80.38;55.90;;;17.40;85.00;;;;;;4935054;28;89307;-69
2023/05/13 09:10:09;;;;;;;79.85;55.25;;;17.40;85.80;;;;;;4935919;28;88633;-72
2023/05/13 09:12:41;;;;;;;81.90;55.80;;;17.40;85.00;;;;;;4939565;28;89556;-77
2023/05/13 09:15:11;;;;;;;80.95;55.70;;;17.40;85.00;;;;;;4939172;28;89559;-76
2023/05/13 09:17:41;;;;;;;78.10;55.80;;;17.50;85.10;;;;;;4936860;28;89090;-72
2023/05/13 09:20:18;;;;;;;80.07;55.72;;;17.40;85.00;;;;;;4953588;28;89661;-77
2023/05/13 09:22:43;;;;;;;81.18;55.45;;;17.50;85.20;;;;;;4942383;28;89372;-70
2023/05/13 09:25:12;;;;;;;79.35;55.13;;;17.50;85.10;;;;;;4935122;28;90649;-70
2023/05/13 09:27:48;;;;;;;75.82;54.53;;;17.50;85.10;;;;;;4938869;28;92934;-75
2023/05/13 09:30:14;;;;;;;76.43;54.60;;;17.50;85.10;;;;;;4952191;28;89910;-78
2023/05/13 09:32:41;;;;;;;79.90;54.72;;;17.50;85.10;;;;;;4936391;28;89804;-80
2023/05/13 09:35:15;;;;;;;81.82;54.85;;;17.50;85.10;;;;;;4935962;28;91703;-76
2023/05/13 09:37:50;;;;;;;78.20;54.80;;;17.50;85.00;;;;;;4940179;28;90045;-76
2023/05/13 09:40:16;;;;;;;78.80;54.92;;;17.50;85.00;;;;;;4939128;28;89456;-78
2023/05/13 09:42:45;;;;;;;80.35;54.58;;;17.50;85.00;;;;;;4942512;28;89026;-76
2023/05/13 09:45:13;;;;;;;78.60;54.63;;;17.50;85.00;;;;;;4940980;28;90136;-75
2023/05/13 09:47:40;;;;;;;80.78;55.05;;;17.50;85.00;;;;;;4938044;28;89157;-78
2023/05/13 09:50:07;;;;;;;79.25;55.03;;;17.50;85.00;;;;;;4940096;28;90237;-75
2023/05/13 09:52:35;;;;;;;78.10;54.90;;;17.50;85.00;;;;;;4941400;28;88995;-78
2023/05/13 09:55:03;;;;;;;76.60;54.80;;;17.50;85.00;;;;;;4939006;28;89526;-74
2023/05/13 09:57:30;;;;;;;77.90;54.70;;;17.60;85.00;;;;;;4941942;28;89713;-78
2023/05/13 09:59:57;;;;;;;77.18;55.05;;;17.50;85.00;;;;;;4936481;28;89484;-73
2023/05/13 10:02:24;;;;;;;75.80;54.35;;;17.50;84.90;;;;;;4940235;28;88660;-75
2023/05/13 10:04:51;;;;;;;76.75;54.67;;;17.60;85.00;;;;;;4939674;28;90335;-72
2023/05/13 10:07:23;;;;;;;80.38;54.92;;;17.50;84.90;;;;;;4938903;28;88719;-78
2023/05/13 10:09:52;;;;;;;76.55;54.65;;;17.50;84.90;;;;;;4939006;28;89519;-77
2023/05/13 10:12:20;;;;;;;77.60;54.47;;;17.60;84.90;;;;;;4942682;28;89404;-73
2023/05/13 10:14:49;;;;;;;79.10;54.97;;;17.60;84.90;;;;;;4936538;28;90577;-73
2023/05/13 10:17:14;;;;;;;77.95;54.97;;;17.60;84.90;;;;;;4937063;28;89502;-78
2023/05/13 10:19:41;;;;;;;77.38;55.05;;;17.60;85.00;;;;;;4938197;28;89572;-71
2023/05/13 10:22:07;;;;;;;79.63;54.80;;;17.60;84.90;;;;;;4939259;28;89557;-78
2023/05/13 10:24:34;;;;;;;77.45;54.45;;;17.60;85.00;;;;;;4935999;28;90038;-74
2023/05/13 10:27:01;;;;;;;76.97;54.80;;;17.60;84.90;;;;;;4938397;28;89451;-76
2023/05/13 10:29:27;;;;;;;79.22;55.20;;;17.60;84.90;;;;;;4941334;28;89281;-79
2023/05/13 10:31:54;;;;;;;75.55;54.67;;;17.60;84.90;;;;;;4939137;28;88908;-72
2023/05/13 10:34:21;;;;;;;76.53;54.80;;;17.60;84.90;;;;;;4934780;28;89627;-74
2023/05/13 10:36:58;;;;;;;77.28;54.25;;;17.60;84.90;;;;;;4938329;28;89887;-77
2023/05/13 10:40:05;;;;;;;77.15;54.72;;;17.60;84.90;;;;;;4937991;28;91076;-72
2023/05/13 10:42:42;;;;;;;76.15;54.60;;;17.60;84.80;;;;;;4914616;28;89439;-74
2023/05/13 10:45:08;;;;;;;77.65;54.75;;;17.70;84.90;;;;;;4923265;28;94892;-76
2023/05/13 10:47:35;;;;;;;77.70;55.00;;;17.70;84.80;;;;;;4914315;28;90452;-76
2023/05/13 10:50:23;;;;;;;76.55;54.63;;;17.70;84.70;;;;;;4923761;28;90082;-72
2023/05/13 10:52:48;;;;;;;77.57;54.80;;;17.70;84.80;;;;;;4925181;28;90618;-73
2023/05/13 10:55:17;;;;;;;77.32;54.58;;;17.70;84.80;;;;;;4930607;28;92555;-74
2023/05/13 10:58:12;;;;;;;79.25;55.17;;;17.70;85.00;;;;;;4937329;28;88946;-73
2023/05/13 11:00:40;;;;;;;81.32;55.47;;;17.70;85.50;;;;;;4941425;28;89411;-75
2023/05/13 11:03:27;;;;;;;85.13;55.35;;;17.70;86.00;;;;;;4927569;28;89155;-75
2023/05/13 11:06:13;;;;;;;82.57;55.30;;;17.70;86.30;;;;;;4931115;28;90326;-74
2023/05/13 11:08:44;;;;;;;80.57;54.97;;;17.80;86.30;;;;;;4926222;28;89768;-75
2023/05/13 11:11:36;;;;;;;82.30;55.38;;;17.70;86.20;;;;;;4932985;28;92148;-74
2023/05/13 11:14:07;;;;;;;91.53;55.90;;;17.80;86.20;;;;;;4923658;28;89697;-71
2023/05/13 11:16:34;;;;;;;81.25;55.15;;;17.80;86.00;;;;;;4942265;28;90526;-70
2023/05/13 11:19:01;;;;;;;79.90;56.03;;;17.80;85.80;;;;;;4935081;28;94299;-74
2023/05/13 11:21:38;;;;;;;81.47;55.53;;;17.80;85.70;;;;;;4935871;28;89020;-73
2023/05/13 11:24:06;;;;;;;82.63;55.22;;;17.80;85.80;;;;;;4943795;28;89123;-74
2023/05/13 11:26:48;;;;;;;82.60;55.75;;;17.80;85.90;;;;;;4932131;28;89943;-67
2023/05/13 11:29:35;;;;;;;84.95;55.38;;;17.80;86.20;;;;;;4923329;28;93227;-71
2023/05/13 11:32:03;;;;;;;84.03;55.85;;;17.80;86.40;;;;;;4936288;28;90963;-71
2023/05/13 11:34:30;;;;;;;83.85;55.72;;;17.80;86.50;;;;;;4928965;28;91357;-69
2023/05/13 11:37:08;;;;;;;81.55;55.78;;;17.80;86.50;;;;;;4936250;28;91469;-72
2023/05/13 11:39:35;;;;;;;81.85;55.50;;;17.80;86.50;;;;;;4932483;28;89885;-73
2023/05/13 11:42:05;;;;;;;82.35;55.30;;;17.80;86.50;;;;;;4934613;28;89833;-74
2023/05/13 11:44:33;;;;;;;81.35;55.70;;;17.90;86.50;;;;;;4938928;28;89561;-69
2023/05/13 11:47:00;;;;;;;80.80;55.40;;;17.80;86.50;;;;;;4937217;28;90144;-70
2023/05/13 11:49:38;;;;;;;82.55;55.20;;;17.90;86.40;;;;;;4936499;28;88768;-71
2023/05/13 11:52:08;;;;;;;82.15;55.63;;;17.90;86.40;;;;;;4939773;28;89646;-75
2023/05/13 11:55:00;;;;;;;86.15;55.95;;;17.90;86.30;;;;;;4933968;28;89895;-70
2023/05/13 11:57:26;;;;;;;;;;;17.90;86.20;;;;;;4935522;28;91223;-71
2023/05/13 12:00:05;;;;;;;80.80;55.45;;;17.90;86.10;;;;;;4932916;28;89430;-72
2023/05/13 12:02:35;;;;;;;82.82;55.15;;;17.90;86.30;;;;;;4935374;28;90247;-71
2023/05/13 12:05:03;;;;;;;86.50;55.65;;;17.90;86.10;;;;;;4937143;28;90481;-70
2023/05/13 12:07:29;;;;;;;82.78;55.72;;;17.90;86.00;;;;;;4933754;28;90208;-71
2023/05/13 12:09:57;;;;;;;84.68;55.40;;;17.90;86.00;;;;;;4932437;28;90298;-73
2023/05/13 12:12:24;;;;;;;83.20;56.15;;;17.90;86.00;;;;;;4939268;28;89410;-73
2023/05/13 12:14:50;;;;;;;82.32;55.58;;;17.90;86.00;;;;;;4938948;28;90083;-69
2023/05/13 12:17:20;;;;;;;82.15;56.22;;;18.00;86.10;;;;;;4935619;28;92060;-72
2023/05/13 12:20:05;;;;;;;82.50;55.38;;;18.00;86.10;;;;;;4940491;28;91899;-75
2023/05/13 12:22:31;;;;;;;85.55;56.42;;;18.00;86.00;;;;;;4932476;28;92456;-70
2023/05/13 12:25:02;;;;;;;82.70;55.92;;;18.00;86.00;;;;;;4925082;28;90477;-71
2023/05/13 12:27:28;;;;;;;84.55;56.55;;;18.00;85.90;;;;;;4932320;28;90468;-70
2023/05/13 12:29:54;;;;;;;84.82;56.47;;;18.00;86.00;;;;;;4932591;28;94280;-73